Hattiesburg Laurel Regional Airport Hattiesburg,Laurel US
ICAO: KPIB
IATA: PIB
Category: Medium
Scheduled Services: Yes

Elevation: 298 ft
TransAlt. 18000 ft.

Airport Communications:
AWOS 3:128.325
HOUSTON CNTR:126.8
CTAF/UNICOM:123

KPIB Zoom In..

If you have problems with the map follow the link
https://www.worldairports.se/pages/airport.php?
ICAO=KPIB

Runways:

(A) RW 18 length 6502 ft width 150 ft
ILS 109.50 / hdg 181

(B) RW 36 length 6502 ft width 150 ft
---- / hdg 1

Location; KPIB
Day. 24 / Time. 10.56 Zulu
* Altimeter: 30.21
* Temperature: 06° c. 42.8°f.
* Wind from: 000° Speed 00 kn.
Dewpoint: 05° c.
Visibility: 7 Statute Miles.
Clouds: Clear (automated report).

KPIB 241056Z AUTO 00000KT 7SM CLR 06/05 A3021 RMK AO2 SLP229 T00560050


Wind - Calm.

 
 
jpsmedia.com for Web Design worldairports.se 2019   terms of use